sensor_id;sensor_type;location;lat;lon;timestamp;temperature;humidity
27848;DHT22;15212;48.830;8.730;2023-04-30T00:02:07;10.00;99.90
27848;DHT22;15212;48.830;8.730;2023-04-30T00:04:36;10.00;99.90
27848;DHT22;15212;48.830;8.730;2023-04-30T00:07:04;9.90;99.90
27848;DHT22;15212;48.830;8.730;2023-04-30T00:09:32;9.90;99.90
27848;DHT22;15212;48.830;8.730;2023-04-30T00:12:01;9.90;99.90
27848;DHT22;15212;48.830;8.730;2023-04-30T00:14:29;9.90;99.90
27848;DHT22;15212;48.830;8.730;2023-04-30T00:16:58;9.90;99.90
27848;DHT22;15212;48.830;8.730;2023-04-30T00:19:26;9.90;99.90
27848;DHT22;15212;48.830;8.730;2023-04-30T00:21:54;9.90;99.90
27848;DHT22;15212;48.830;8.730;2023-04-30T00:24:23;9.90;99.90
27848;DHT22;15212;48.830;8.730;2023-04-30T00:26:51;9.80;99.90
27848;DHT22;15212;48.830;8.730;2023-04-30T00:29:19;9.80;99.90
27848;DHT22;15212;48.830;8.730;2023-04-30T00:31:48;9.80;99.90
27848;DHT22;15212;48.830;8.730;2023-04-30T00:34:16;9.80;99.90
27848;DHT22;15212;48.830;8.730;2023-04-30T00:36:45;9.80;99.90
27848;DHT22;15212;48.830;8.730;2023-04-30T00:39:13;9.80;99.90
27848;DHT22;15212;48.830;8.730;2023-04-30T00:41:42;9.80;99.90
27848;DHT22;15212;48.830;8.730;2023-04-30T00:44:11;9.80;99.90
27848;DHT22;15212;48.830;8.730;2023-04-30T00:46:39;9.80;99.90
27848;DHT22;15212;48.830;8.730;2023-04-30T00:49:08;9.80;99.90
27848;DHT22;15212;48.830;8.730;2023-04-30T00:51:39;9.80;99.90
27848;DHT22;15212;48.830;8.730;2023-04-30T00:54:07;9.80;99.90
27848;DHT22;15212;48.830;8.730;2023-04-30T00:56:36;9.70;99.90
27848;DHT22;15212;48.830;8.730;2023-04-30T00:59:05;9.70;99.90
27848;DHT22;15212;48.830;8.730;2023-04-30T01:01:33;9.70;99.90
27848;DHT22;15212;48.830;8.730;2023-04-30T01:04:01;9.70;99.90
27848;DHT22;15212;48.830;8.730;2023-04-30T01:06:30;9.70;99.90
27848;DHT22;15212;48.830;8.730;2023-04-30T01:08:59;9.70;99.90
27848;DHT22;15212;48.830;8.730;2023-04-30T01:14:30;9.70;99.90
27848;DHT22;15212;48.830;8.730;2023-04-30T01:17:15;9.70;99.90
27848;DHT22;15212;48.830;8.730;2023-04-30T01:19:50;9.70;99.90
27848;DHT22;15212;48.830;8.730;2023-04-30T01:28:04;9.70;99.90
27848;DHT22;15212;48.830;8.730;2023-04-30T01:30:33;9.60;99.90
27848;DHT22;15212;48.830;8.730;2023-04-30T01:33:02;9.60;99.90
27848;DHT22;15212;48.830;8.730;2023-04-30T01:44:07;9.50;99.90
27848;DHT22;15212;48.830;8.730;2023-04-30T01:47:03;9.50;99.90
27848;DHT22;15212;48.830;8.730;2023-04-30T01:50:09;9.50;99.90
27848;DHT22;15212;48.830;8.730;2023-04-30T01:52:57;9.60;99.90
27848;DHT22;15212;48.830;8.730;2023-04-30T01:55:34;9.60;99.90
27848;DHT22;15212;48.830;8.730;2023-04-30T01:58:06;9.50;99.90
27848;DHT22;15212;48.830;8.730;2023-04-30T02:00:37;9.50;99.90
27848;DHT22;15212;48.830;8.730;2023-04-30T02:03:05;9.50;99.90
27848;DHT22;15212;48.830;8.730;2023-04-30T02:05:34;9.50;99.90
27848;DHT22;15212;48.830;8.730;2023-04-30T02:08:02;9.50;99.90
27848;DHT22;15212;48.830;8.730;2023-04-30T02:10:31;9.40;99.90
27848;DHT22;15212;48.830;8.730;2023-04-30T02:13:00;9.40;99.90
27848;DHT22;15212;48.830;8.730;2023-04-30T02:15:28;9.50;99.90
27848;DHT22;15212;48.830;8.730;2023-04-30T02:17:57;9.40;99.90
27848;DHT22;15212;48.830;8.730;2023-04-30T02:20:25;9.40;99.90
27848;DHT22;15212;48.830;8.730;2023-04-30T02:22:53;9.40;99.90
27848;DHT22;15212;48.830;8.730;2023-04-30T02:25:22;9.40;99.90
27848;DHT22;15212;48.830;8.730;2023-04-30T02:27:51;9.40;99.90
27848;DHT22;15212;48.830;8.730;2023-04-30T02:30:20;9.30;99.90
27848;DHT22;15212;48.830;8.730;2023-04-30T02:32:48;9.40;99.90
27848;DHT22;15212;48.830;8.730;2023-04-30T02:35:16;9.40;99.90
27848;DHT22;15212;48.830;8.730;2023-04-30T02:37:45;9.30;99.90
27848;DHT22;15212;48.830;8.730;2023-04-30T02:40:13;9.30;99.90
27848;DHT22;15212;48.830;8.730;2023-04-30T02:42:42;9.30;99.90
27848;DHT22;15212;48.830;8.730;2023-04-30T02:45:10;9.30;99.90
27848;DHT22;15212;48.830;8.730;2023-04-30T02:47:38;9.30;99.90
27848;DHT22;15212;48.830;8.730;2023-04-30T02:50:07;9.20;99.90
27848;DHT22;15212;48.830;8.730;2023-04-30T02:52:36;9.20;99.90
27848;DHT22;15212;48.830;8.730;2023-04-30T02:55:04;9.20;99.90
27848;DHT22;15212;48.830;8.730;2023-04-30T02:57:33;9.20;99.90
27848;DHT22;15212;48.830;8.730;2023-04-30T03:00:02;9.10;99.90
27848;DHT22;15212;48.830;8.730;2023-04-30T03:02:32;9.10;99.90
27848;DHT22;15212;48.830;8.730;2023-04-30T03:05:01;9.10;99.90
27848;DHT22;15212;48.830;8.730;2023-04-30T03:07:30;9.10;99.90
27848;DHT22;15212;48.830;8.730;2023-04-30T03:09:58;9.10;99.90
27848;DHT22;15212;48.830;8.730;2023-04-30T03:12:26;9.10;99.90
27848;DHT22;15212;48.830;8.730;2023-04-30T03:14:55;9.10;99.90
27848;DHT22;15212;48.830;8.730;2023-04-30T03:17:23;9.00;99.90
27848;DHT22;15212;48.830;8.730;2023-04-30T03:19:52;9.10;99.90
27848;DHT22;15212;48.830;8.730;2023-04-30T03:22:20;9.10;99.90
27848;DHT22;15212;48.830;8.730;2023-04-30T03:24:49;9.00;99.90
27848;DHT22;15212;48.830;8.730;2023-04-30T03:27:17;9.00;99.90
27848;DHT22;15212;48.830;8.730;2023-04-30T03:29:46;9.00;99.90
27848;DHT22;15212;48.830;8.730;2023-04-30T03:32:14;9.00;99.90
27848;DHT22;15212;48.830;8.730;2023-04-30T03:34:43;9.00;99.90
27848;DHT22;15212;48.830;8.730;2023-04-30T03:37:11;9.00;99.90
27848;DHT22;15212;48.830;8.730;2023-04-30T03:39:40;9.00;99.90
27848;DHT22;15212;48.830;8.730;2023-04-30T03:42:08;8.90;99.90
27848;DHT22;15212;48.830;8.730;2023-04-30T03:44:36;8.90;99.90
27848;DHT22;15212;48.830;8.730;2023-04-30T03:47:05;8.90;99.90
27848;DHT22;15212;48.830;8.730;2023-04-30T03:49:33;8.90;99.90
27848;DHT22;15212;48.830;8.730;2023-04-30T03:52:02;8.90;99.90
27848;DHT22;15212;48.830;8.730;2023-04-30T03:54:32;8.90;99.90
27848;DHT22;15212;48.830;8.730;2023-04-30T03:57:00;8.90;99.90
27848;DHT22;15212;48.830;8.730;2023-04-30T03:59:31;8.90;99.90
27848;DHT22;15212;48.830;8.730;2023-04-30T04:01:59;8.90;99.90
27848;DHT22;15212;48.830;8.730;2023-04-30T04:04:28;8.90;99.90
27848;DHT22;15212;48.830;8.730;2023-04-30T04:06:57;8.90;99.90
27848;DHT22;15212;48.830;8.730;2023-04-30T04:09:26;8.90;99.90
27848;DHT22;15212;48.830;8.730;2023-04-30T04:11:54;8.80;99.90
27848;DHT22;15212;48.830;8.730;2023-04-30T04:14:23;8.90;99.90
27848;DHT22;15212;48.830;8.730;2023-04-30T04:16:51;8.90;99.90
27848;DHT22;15212;48.830;8.730;2023-04-30T04:19:20;8.80;99.90
27848;DHT22;15212;48.830;8.730;2023-04-30T04:21:48;8.80;99.90
27848;DHT22;15212;48.830;8.730;2023-04-30T04:24:17;8.80;99.90
27848;DHT22;15212;48.830;8.730;2023-04-30T04:26:45;8.80;99.90
27848;DHT22;15212;48.830;8.730;2023-04-30T04:29:13;8.80;99.90
27848;DHT22;15212;48.830;8.730;2023-04-30T04:31:42;8.70;99.90
27848;DHT22;15212;48.830;8.730;2023-04-30T04:34:11;8.70;99.90
27848;DHT22;15212;48.830;8.730;2023-04-30T04:36:39;8.80;99.90
27848;DHT22;15212;48.830;8.730;2023-04-30T04:39:08;8.80;99.90
27848;DHT22;15212;48.830;8.730;2023-04-30T04:41:37;8.70;99.90
27848;DHT22;15212;48.830;8.730;2023-04-30T04:44:05;8.70;99.90
27848;DHT22;15212;48.830;8.730;2023-04-30T04:46:34;8.70;99.90
27848;DHT22;15212;48.830;8.730;2023-04-30T04:49:04;8.70;99.90
27848;DHT22;15212;48.830;8.730;2023-04-30T04:51:33;8.70;99.90
27848;DHT22;15212;48.830;8.730;2023-04-30T04:54:01;8.80;99.90
27848;DHT22;15212;48.830;8.730;2023-04-30T04:56:30;8.80;99.90
27848;DHT22;15212;48.830;8.730;2023-04-30T04:58:59;8.80;99.90
27848;DHT22;15212;48.830;8.730;2023-04-30T05:01:27;8.90;99.90
27848;DHT22;15212;48.830;8.730;2023-04-30T05:03:56;8.90;99.90
27848;DHT22;15212;48.830;8.730;2023-04-30T05:06:24;8.90;99.90
27848;DHT22;15212;48.830;8.730;2023-04-30T05:08:54;8.90;99.90
27848;DHT22;15212;48.830;8.730;2023-04-30T05:11:22;9.00;99.90
27848;DHT22;15212;48.830;8.730;2023-04-30T05:13:51;9.00;99.90
27848;DHT22;15212;48.830;8.730;2023-04-30T05:16:19;9.00;99.90
27848;DHT22;15212;48.830;8.730;2023-04-30T05:18:47;9.00;99.90
27848;DHT22;15212;48.830;8.730;2023-04-30T05:21:16;9.10;99.90
27848;DHT22;15212;48.830;8.730;2023-04-30T05:23:44;9.10;99.90
27848;DHT22;15212;48.830;8.730;2023-04-30T05:26:13;9.10;99.90
27848;DHT22;15212;48.830;8.730;2023-04-30T05:28:41;9.10;99.90
27848;DHT22;15212;48.830;8.730;2023-04-30T05:31:10;9.10;99.90
27848;DHT22;15212;48.830;8.730;2023-04-30T05:33:39;9.10;99.90
27848;DHT22;15212;48.830;8.730;2023-04-30T05:36:07;9.10;99.90
27848;DHT22;15212;48.830;8.730;2023-04-30T05:38:36;9.20;99.90
27848;DHT22;15212;48.830;8.730;2023-04-30T05:41:05;9.40;99.90
27848;DHT22;15212;48.830;8.730;2023-04-30T05:43:33;9.60;99.90
27848;DHT22;15212;48.830;8.730;2023-04-30T05:46:01;9.60;99.90
27848;DHT22;15212;48.830;8.730;2023-04-30T05:48:30;9.70;99.90
27848;DHT22;15212;48.830;8.730;2023-04-30T05:50:58;9.80;99.90
27848;DHT22;15212;48.830;8.730;2023-04-30T05:53:27;9.70;99.90
27848;DHT22;15212;48.830;8.730;2023-04-30T05:55:55;9.70;99.90
27848;DHT22;15212;48.830;8.730;2023-04-30T05:58:24;9.60;99.90
27848;DHT22;15212;48.830;8.730;2023-04-30T06:00:53;9.50;99.90
27848;DHT22;15212;48.830;8.730;2023-04-30T06:03:21;9.50;99.90
27848;DHT22;15212;48.830;8.730;2023-04-30T06:05:50;9.50;99.90
27848;DHT22;15212;48.830;8.730;2023-04-30T06:08:18;9.60;99.90
27848;DHT22;15212;48.830;8.730;2023-04-30T06:10:46;9.70;99.90
27848;DHT22;15212;48.830;8.730;2023-04-30T06:13:15;9.70;99.90
27848;DHT22;15212;48.830;8.730;2023-04-30T06:15:44;9.90;99.90
27848;DHT22;15212;48.830;8.730;2023-04-30T06:18:12;9.90;99.90
27848;DHT22;15212;48.830;8.730;2023-04-30T06:20:43;10.00;99.90
27848;DHT22;15212;48.830;8.730;2023-04-30T06:23:11;10.00;99.90
27848;DHT22;15212;48.830;8.730;2023-04-30T06:25:40;10.20;99.90
27848;DHT22;15212;48.830;8.730;2023-04-30T06:28:08;10.20;99.90
27848;DHT22;15212;48.830;8.730;2023-04-30T06:30:37;10.10;99.90
27848;DHT22;15212;48.830;8.730;2023-04-30T06:33:05;10.10;99.90
27848;DHT22;15212;48.830;8.730;2023-04-30T06:35:33;10.20;99.90
27848;DHT22;15212;48.830;8.730;2023-04-30T06:38:02;10.20;99.90
27848;DHT22;15212;48.830;8.730;2023-04-30T06:40:31;10.30;99.90
27848;DHT22;15212;48.830;8.730;2023-04-30T06:42:59;10.50;99.90
27848;DHT22;15212;48.830;8.730;2023-04-30T06:45:27;11.00;99.90
27848;DHT22;15212;48.830;8.730;2023-04-30T06:47:56;11.20;99.90
27848;DHT22;15212;48.830;8.730;2023-04-30T06:50:24;11.20;99.90
27848;DHT22;15212;48.830;8.730;2023-04-30T06:52:53;11.20;99.90
27848;DHT22;15212;48.830;8.730;2023-04-30T06:55:21;11.20;99.90
27848;DHT22;15212;48.830;8.730;2023-04-30T06:57:50;11.20;99.90
27848;DHT22;15212;48.830;8.730;2023-04-30T07:00:19;11.30;99.90
27848;DHT22;15212;48.830;8.730;2023-04-30T07:02:48;11.60;99.90
27848;DHT22;15212;48.830;8.730;2023-04-30T07:05:17;11.80;99.90
27848;DHT22;15212;48.830;8.730;2023-04-30T07:07:46;11.90;99.90
27848;DHT22;15212;48.830;8.730;2023-04-30T07:10:14;11.60;99.90
27848;DHT22;15212;48.830;8.730;2023-04-30T07:12:44;11.60;99.90
27848;DHT22;15212;48.830;8.730;2023-04-30T07:15:12;11.70;99.90
27848;DHT22;15212;48.830;8.730;2023-04-30T07:17:40;12.00;99.90
27848;DHT22;15212;48.830;8.730;2023-04-30T07:20:11;12.10;99.90
27848;DHT22;15212;48.830;8.730;2023-04-30T07:22:43;12.20;99.90
27848;DHT22;15212;48.830;8.730;2023-04-30T07:25:12;12.30;99.90
27848;DHT22;15212;48.830;8.730;2023-04-30T07:27:41;12.40;99.90
27848;DHT22;15212;48.830;8.730;2023-04-30T07:30:10;12.50;99.90
27848;DHT22;15212;48.830;8.730;2023-04-30T07:32:39;12.70;99.90
27848;DHT22;15212;48.830;8.730;2023-04-30T07:35:09;12.80;99.90
27848;DHT22;15212;48.830;8.730;2023-04-30T07:37:37;12.90;99.90
27848;DHT22;15212;48.830;8.730;2023-04-30T07:40:07;12.70;99.90
27848;DHT22;15212;48.830;8.730;2023-04-30T07:42:39;12.60;99.90
27848;DHT22;15212;48.830;8.730;2023-04-30T07:45:08;12.70;99.90
27848;DHT22;15212;48.830;8.730;2023-04-30T07:47:38;12.80;99.90
27848;DHT22;15212;48.830;8.730;2023-04-30T07:50:07;13.00;99.90
27848;DHT22;15212;48.830;8.730;2023-04-30T07:52:35;13.30;99.90
27848;DHT22;15212;48.830;8.730;2023-04-30T07:55:04;13.70;99.90
27848;DHT22;15212;48.830;8.730;2023-04-30T07:57:32;13.70;99.90
27848;DHT22;15212;48.830;8.730;2023-04-30T08:00:01;13.90;99.90
27848;DHT22;15212;48.830;8.730;2023-04-30T08:02:30;13.90;99.90
27848;DHT22;15212;48.830;8.730;2023-04-30T08:04:58;13.90;99.90
27848;DHT22;15212;48.830;8.730;2023-04-30T08:07:27;14.00;99.90
27848;DHT22;15212;48.830;8.730;2023-04-30T08:09:55;14.00;99.90
27848;DHT22;15212;48.830;8.730;2023-04-30T08:12:23;14.00;99.90
27848;DHT22;15212;48.830;8.730;2023-04-30T08:15:04;14.00;99.90
27848;DHT22;15212;48.830;8.730;2023-04-30T08:17:31;14.00;99.90
27848;DHT22;15212;48.830;8.730;2023-04-30T08:20:01;14.10;99.90
27848;DHT22;15212;48.830;8.730;2023-04-30T08:22:30;14.20;99.90
27848;DHT22;15212;48.830;8.730;2023-04-30T08:24:59;14.30;99.90
27848;DHT22;15212;48.830;8.730;2023-04-30T08:27:29;14.20;99.90
27848;DHT22;15212;48.830;8.730;2023-04-30T08:29:58;14.20;99.90
27848;DHT22;15212;48.830;8.730;2023-04-30T08:32:27;14.10;99.90
27848;DHT22;15212;48.830;8.730;2023-04-30T08:34:56;14.20;99.90
27848;DHT22;15212;48.830;8.730;2023-04-30T08:37:24;14.20;99.90
27848;DHT22;15212;48.830;8.730;2023-04-30T08:39:52;14.20;99.90
27848;DHT22;15212;48.830;8.730;2023-04-30T08:42:28;14.10;99.90
27848;DHT22;15212;48.830;8.730;2023-04-30T08:44:54;14.00;99.90
27848;DHT22;15212;48.830;8.730;2023-04-30T08:47:23;14.10;99.90
27848;DHT22;15212;48.830;8.730;2023-04-30T08:49:52;14.10;99.90
27848;DHT22;15212;48.830;8.730;2023-04-30T08:52:21;14.30;99.90
27848;DHT22;15212;48.830;8.730;2023-04-30T08:54:50;14.10;99.90
27848;DHT22;15212;48.830;8.730;2023-04-30T08:57:19;13.90;99.90
27848;DHT22;15212;48.830;8.730;2023-04-30T08:59:48;13.80;99.90
27848;DHT22;15212;48.830;8.730;2023-04-30T09:02:16;14.00;99.90
27848;DHT22;15212;48.830;8.730;2023-04-30T09:04:45;14.20;99.90
27848;DHT22;15212;48.830;8.730;2023-04-30T09:07:14;14.50;99.90
27848;DHT22;15212;48.830;8.730;2023-04-30T09:09:45;14.70;99.90
27848;DHT22;15212;48.830;8.730;2023-04-30T09:12:16;14.70;99.90
27848;DHT22;15212;48.830;8.730;2023-04-30T09:17:46;14.40;99.90
27848;DHT22;15212;48.830;8.730;2023-04-30T09:20:15;14.40;99.90
27848;DHT22;15212;48.830;8.730;2023-04-30T09:22:44;14.20;99.90
27848;DHT22;15212;48.830;8.730;2023-04-30T09:25:12;14.10;99.90
27848;DHT22;15212;48.830;8.730;2023-04-30T09:27:42;14.10;99.90
27848;DHT22;15212;48.830;8.730;2023-04-30T09:30:35;13.90;99.90
27848;DHT22;15212;48.830;8.730;2023-04-30T09:32:55;13.80;99.90
27848;DHT22;15212;48.830;8.730;2023-04-30T09:35:35;13.60;99.90
27848;DHT22;15212;48.830;8.730;2023-04-30T09:38:01;13.40;99.90
27848;DHT22;15212;48.830;8.730;2023-04-30T09:40:37;13.40;99.90
27848;DHT22;15212;48.830;8.730;2023-04-30T09:43:07;13.40;99.90
27848;DHT22;15212;48.830;8.730;2023-04-30T09:45:43;13.40;99.90
27848;DHT22;15212;48.830;8.730;2023-04-30T09:48:19;13.40;99.90
27848;DHT22;15212;48.830;8.730;2023-04-30T09:50:50;13.40;99.90
27848;DHT22;15212;48.830;8.730;2023-04-30T09:53:19;13.50;99.90
27848;DHT22;15212;48.830;8.730;2023-04-30T09:55:50;13.60;99.90
27848;DHT22;15212;48.830;8.730;2023-04-30T09:58:19;13.60;99.90
27848;DHT22;15212;48.830;8.730;2023-04-30T10:00:49;13.70;99.90
27848;DHT22;15212;48.830;8.730;2023-04-30T10:03:20;13.70;99.90
27848;DHT22;15212;48.830;8.730;2023-04-30T10:05:49;13.60;99.90
27848;DHT22;15212;48.830;8.730;2023-04-30T10:08:27;13.60;99.90
27848;DHT22;15212;48.830;8.730;2023-04-30T10:11:09;13.60;99.90
27848;DHT22;15212;48.830;8.730;2023-04-30T10:19:22;13.70;99.90
27848;DHT22;15212;48.830;8.730;2023-04-30T10:21:52;13.70;99.90
27848;DHT22;15212;48.830;8.730;2023-04-30T10:24:21;13.80;99.90
27848;DHT22;15212;48.830;8.730;2023-04-30T10:26:49;13.80;99.90
27848;DHT22;15212;48.830;8.730;2023-04-30T10:29:18;13.90;99.90
27848;DHT22;15212;48.830;8.730;2023-04-30T10:31:49;14.00;99.90
27848;DHT22;15212;48.830;8.730;2023-04-30T10:34:52;14.20;99.90
27848;DHT22;15212;48.830;8.730;2023-04-30T10:37:35;14.30;99.90
27848;DHT22;15212;48.830;8.730;2023-04-30T10:40:05;14.50;99.90
27848;DHT22;15212;48.830;8.730;2023-04-30T10:42:35;14.60;99.90
27848;DHT22;15212;48.830;8.730;2023-04-30T10:45:04;14.60;99.90
27848;DHT22;15212;48.830;8.730;2023-04-30T10:47:36;14.60;99.90
27848;DHT22;15212;48.830;8.730;2023-04-30T10:50:07;14.60;99.90
27848;DHT22;15212;48.830;8.730;2023-04-30T10:52:37;14.60;99.90
27848;DHT22;15212;48.830;8.730;2023-04-30T10:55:07;14.80;99.90
27848;DHT22;15212;48.830;8.730;2023-04-30T10:57:42;14.80;99.90
27848;DHT22;15212;48.830;8.730;2023-04-30T11:00:17;14.90;99.90
27848;DHT22;15212;48.830;8.730;2023-04-30T11:02:46;14.90;99.90
27848;DHT22;15212;48.830;8.730;2023-04-30T11:05:16;15.00;99.90
27848;DHT22;15212;48.830;8.730;2023-04-30T11:07:49;15.10;99.90
27848;DHT22;15212;48.830;8.730;2023-04-30T11:10:25;15.10;99.90
27848;DHT22;15212;48.830;8.730;2023-04-30T11:12:55;15.10;99.90
27848;DHT22;15212;48.830;8.730;2023-04-30T11:15:32;15.10;99.90
27848;DHT22;15212;48.830;8.730;2023-04-30T11:18:09;15.20;99.90
27848;DHT22;15212;48.830;8.730;2023-04-30T11:20:47;15.10;99.90
27848;DHT22;15212;48.830;8.730;2023-04-30T11:23:16;15.00;99.90
27848;DHT22;15212;48.830;8.730;2023-04-30T11:25:47;14.90;99.90
27848;DHT22;15212;48.830;8.730;2023-04-30T11:28:21;14.90;99.90
27848;DHT22;15212;48.830;8.730;2023-04-30T11:30:58;15.00;99.90
27848;DHT22;15212;48.830;8.730;2023-04-30T11:33:30;15.10;99.90
27848;DHT22;15212;48.830;8.730;2023-04-30T11:36:01;15.10;99.90
27848;DHT22;15212;48.830;8.730;2023-04-30T11:38:36;15.00;99.90
27848;DHT22;15212;48.830;8.730;2023-04-30T11:41:02;14.90;99.90
27848;DHT22;15212;48.830;8.730;2023-04-30T11:43:32;14.90;99.90
27848;DHT22;15212;48.830;8.730;2023-04-30T11:46:06;14.80;99.90
27848;DHT22;15212;48.830;8.730;2023-04-30T11:48:39;14.80;99.90
27848;DHT22;15212;48.830;8.730;2023-04-30T11:51:19;14.90;99.90
27848;DHT22;15212;48.830;8.730;2023-04-30T11:53:52;14.90;99.90
27848;DHT22;15212;48.830;8.730;2023-04-30T11:56:22;14.90;99.90
27848;DHT22;15212;48.830;8.730;2023-04-30T11:58:52;14.90;99.90
27848;DHT22;15212;48.830;8.730;2023-04-30T12:01:26;14.90;99.90
27848;DHT22;15212;48.830;8.730;2023-04-30T12:03:55;14.80;99.90
27848;DHT22;15212;48.830;8.730;2023-04-30T12:06:26;14.80;99.90
27848;DHT22;15212;48.830;8.730;2023-04-30T12:08:56;14.80;99.90
27848;DHT22;15212;48.830;8.730;2023-04-30T12:11:28;14.80;99.90
27848;DHT22;15212;48.830;8.730;2023-04-30T12:14:03;14.80;99.90
27848;DHT22;15212;48.830;8.730;2023-04-30T12:16:50;14.70;99.90
27848;DHT22;15212;48.830;8.730;2023-04-30T12:19:21;14.80;99.90
27848;DHT22;15212;48.830;8.730;2023-04-30T12:21:50;14.90;99.90
27848;DHT22;15212;48.830;8.730;2023-04-30T12:24:20;15.00;99.90
27848;DHT22;15212;48.830;8.730;2023-04-30T12:26:51;15.10;99.90
27848;DHT22;15212;48.830;8.730;2023-04-30T12:29:21;15.20;99.90
27848;DHT22;15212;48.830;8.730;2023-04-30T12:31:51;15.00;99.90
27848;DHT22;15212;48.830;8.730;2023-04-30T12:34:22;15.10;99.90
27848;DHT22;15212;48.830;8.730;2023-04-30T12:36:52;15.00;99.90
27848;DHT22;15212;48.830;8.730;2023-04-30T12:39:24;15.00;99.90
27848;DHT22;15212;48.830;8.730;2023-04-30T12:41:53;15.00;99.90
27848;DHT22;15212;48.830;8.730;2023-04-30T12:44:23;14.90;99.90
27848;DHT22;15212;48.830;8.730;2023-04-30T12:46:54;15.00;99.90
27848;DHT22;15212;48.830;8.730;2023-04-30T12:49:32;15.00;99.90
27848;DHT22;15212;48.830;8.730;2023-04-30T12:52:07;14.90;99.90
27848;DHT22;15212;48.830;8.730;2023-04-30T12:54:38;14.80;99.90
27848;DHT22;15212;48.830;8.730;2023-04-30T12:57:09;14.80;99.90
27848;DHT22;15212;48.830;8.730;2023-04-30T12:59:54;14.80;99.90
27848;DHT22;15212;48.830;8.730;2023-04-30T13:02:25;14.90;99.90
27848;DHT22;15212;48.830;8.730;2023-04-30T13:04:54;14.80;99.90
27848;DHT22;15212;48.830;8.730;2023-04-30T13:07:23;14.80;99.90
27848;DHT22;15212;48.830;8.730;2023-04-30T13:09:51;14.90;99.90
27848;DHT22;15212;48.830;8.730;2023-04-30T13:12:20;15.00;99.90
27848;DHT22;15212;48.830;8.730;2023-04-30T13:14:48;15.00;99.90
27848;DHT22;15212;48.830;8.730;2023-04-30T13:17:17;15.00;99.90
27848;DHT22;15212;48.830;8.730;2023-04-30T13:19:45;15.10;99.90
27848;DHT22;15212;48.830;8.730;2023-04-30T13:22:13;15.10;99.90
27848;DHT22;15212;48.830;8.730;2023-04-30T13:24:42;15.20;99.90
27848;DHT22;15212;48.830;8.730;2023-04-30T13:27:10;15.30;99.90
27848;DHT22;15212;48.830;8.730;2023-04-30T13:29:38;15.30;99.90
27848;DHT22;15212;48.830;8.730;2023-04-30T13:32:07;15.40;99.90
27848;DHT22;15212;48.830;8.730;2023-04-30T13:34:35;15.40;99.90
27848;DHT22;15212;48.830;8.730;2023-04-30T13:37:04;15.50;99.90
27848;DHT22;15212;48.830;8.730;2023-04-30T13:39:32;15.40;99.90
27848;DHT22;15212;48.830;8.730;2023-04-30T13:42:01;15.40;99.90
27848;DHT22;15212;48.830;8.730;2023-04-30T13:44:30;15.30;99.90
27848;DHT22;15212;48.830;8.730;2023-04-30T13:46:59;15.30;99.90
27848;DHT22;15212;48.830;8.730;2023-04-30T13:49:27;15.40;99.90
27848;DHT22;15212;48.830;8.730;2023-04-30T13:51:55;15.40;99.90
27848;DHT22;15212;48.830;8.730;2023-04-30T13:54:24;15.40;99.90
27848;DHT22;15212;48.830;8.730;2023-04-30T13:56:52;15.30;99.90
27848;DHT22;15212;48.830;8.730;2023-04-30T13:59:21;15.30;99.90
27848;DHT22;15212;48.830;8.730;2023-04-30T14:01:49;15.20;99.90
27848;DHT22;15212;48.830;8.730;2023-04-30T14:04:18;15.20;99.90
27848;DHT22;15212;48.830;8.730;2023-04-30T14:06:46;15.20;99.90
27848;DHT22;15212;48.830;8.730;2023-04-30T14:09:14;15.20;99.90
27848;DHT22;15212;48.830;8.730;2023-04-30T14:11:43;15.20;99.90
27848;DHT22;15212;48.830;8.730;2023-04-30T14:14:12;15.10;99.90
27848;DHT22;15212;48.830;8.730;2023-04-30T14:16:40;15.00;99.90
27848;DHT22;15212;48.830;8.730;2023-04-30T14:19:09;14.90;99.90
27848;DHT22;15212;48.830;8.730;2023-04-30T14:21:38;14.90;99.90
27848;DHT22;15212;48.830;8.730;2023-04-30T14:24:06;14.90;99.90
27848;DHT22;15212;48.830;8.730;2023-04-30T14:26:37;14.90;99.90
27848;DHT22;15212;48.830;8.730;2023-04-30T14:29:08;15.00;99.90
27848;DHT22;15212;48.830;8.730;2023-04-30T14:31:36;15.00;99.90
27848;DHT22;15212;48.830;8.730;2023-04-30T14:34:05;15.10;99.90
27848;DHT22;15212;48.830;8.730;2023-04-30T14:36:33;15.20;99.90
27848;DHT22;15212;48.830;8.730;2023-04-30T14:39:03;15.20;99.90
27848;DHT22;15212;48.830;8.730;2023-04-30T14:41:35;15.30;99.90
27848;DHT22;15212;48.830;8.730;2023-04-30T14:44:03;15.20;99.90
27848;DHT22;15212;48.830;8.730;2023-04-30T14:46:32;15.10;99.90
27848;DHT22;15212;48.830;8.730;2023-04-30T14:49:00;15.20;99.90
27848;DHT22;15212;48.830;8.730;2023-04-30T14:51:29;15.30;99.90
27848;DHT22;15212;48.830;8.730;2023-04-30T14:54:00;15.30;99.90
27848;DHT22;15212;48.830;8.730;2023-04-30T14:56:28;15.20;99.90
27848;DHT22;15212;48.830;8.730;2023-04-30T14:58:57;15.30;99.90
27848;DHT22;15212;48.830;8.730;2023-04-30T15:01:25;15.30;99.90
27848;DHT22;15212;48.830;8.730;2023-04-30T15:03:55;15.30;99.90
27848;DHT22;15212;48.830;8.730;2023-04-30T15:06:24;15.30;99.90
27848;DHT22;15212;48.830;8.730;2023-04-30T15:08:52;15.20;99.90
27848;DHT22;15212;48.830;8.730;2023-04-30T15:11:21;15.10;99.90
27848;DHT22;15212;48.830;8.730;2023-04-30T15:13:50;15.10;99.90
27848;DHT22;15212;48.830;8.730;2023-04-30T15:16:20;15.20;99.90
27848;DHT22;15212;48.830;8.730;2023-04-30T15:18:48;15.20;99.90
27848;DHT22;15212;48.830;8.730;2023-04-30T15:21:17;15.20;99.90
27848;DHT22;15212;48.830;8.730;2023-04-30T15:23:45;15.30;99.90
27848;DHT22;15212;48.830;8.730;2023-04-30T15:26:14;15.40;99.90
27848;DHT22;15212;48.830;8.730;2023-04-30T15:28:42;15.50;99.90
27848;DHT22;15212;48.830;8.730;2023-04-30T15:31:11;15.50;99.90
27848;DHT22;15212;48.830;8.730;2023-04-30T15:33:39;15.40;99.90
27848;DHT22;15212;48.830;8.730;2023-04-30T15:36:09;15.30;99.90
27848;DHT22;15212;48.830;8.730;2023-04-30T15:38:37;15.20;99.90
27848;DHT22;15212;48.830;8.730;2023-04-30T15:41:06;15.20;99.90
27848;DHT22;15212;48.830;8.730;2023-04-30T15:43:34;15.10;99.90
27848;DHT22;15212;48.830;8.730;2023-04-30T15:46:02;15.00;99.90
27848;DHT22;15212;48.830;8.730;2023-04-30T15:48:31;14.90;99.90
27848;DHT22;15212;48.830;8.730;2023-04-30T15:50:59;15.00;99.90
27848;DHT22;15212;48.830;8.730;2023-04-30T15:53:28;15.00;99.90
27848;DHT22;15212;48.830;8.730;2023-04-30T15:55:56;15.00;99.90
27848;DHT22;15212;48.830;8.730;2023-04-30T15:58:24;15.00;99.90
27848;DHT22;15212;48.830;8.730;2023-04-30T16:00:53;15.00;99.90
27848;DHT22;15212;48.830;8.730;2023-04-30T16:03:21;15.00;99.90
27848;DHT22;15212;48.830;8.730;2023-04-30T16:05:50;15.10;99.90
27848;DHT22;15212;48.830;8.730;2023-04-30T16:08:18;15.10;99.90
27848;DHT22;15212;48.830;8.730;2023-04-30T16:10:47;15.20;99.90
27848;DHT22;15212;48.830;8.730;2023-04-30T16:13:15;15.10;99.90
27848;DHT22;15212;48.830;8.730;2023-04-30T16:15:43;15.00;99.90
27848;DHT22;15212;48.830;8.730;2023-04-30T16:18:12;15.00;99.90
27848;DHT22;15212;48.830;8.730;2023-04-30T16:20:41;15.10;99.90